Time;durP1;ratioP1;P1;durP2;ratioP2;P2;SDS_P1;SDS_P2;PMS_P1;PMS_P2;Temp;Humidity;BMP_temperature;BMP_pressure;BME280_temperature;BME280_humidity;BME280_pressure;Samples;Min_cycle;Max_cycle;Signal;HPM_P1;HPM_P2
2021/03/15 00:00:59;;;;;;;2.67;0.90;;;19.50;52.40;;;;;;10415547;28;20218;-25
2021/03/15 00:06:21;;;;;;;1.37;0.70;;;19.40;52.40;;;;;;10415630;28;20206;-25
2021/03/15 00:11:42;;;;;;;1.90;0.73;;;19.40;52.50;;;;;;10414618;28;20201;-25
2021/03/15 00:17:05;;;;;;;1.23;0.67;;;19.40;52.60;;;;;;10403895;28;20218;-25
2021/03/15 00:22:26;;;;;;;1.20;0.77;;;19.40;52.60;;;;;;10392696;28;20624;-25
2021/03/15 00:27:48;;;;;;;1.40;0.60;;;19.40;52.50;;;;;;10394803;28;20317;-25
2021/03/15 00:33:11;;;;;;;1.87;0.90;;;19.40;52.50;;;;;;10402653;28;20203;-25
2021/03/15 00:38:34;;;;;;;1.10;0.70;;;19.30;52.50;;;;;;10377381;28;20220;-25
2021/03/15 00:43:55;;;;;;;1.77;0.97;;;19.30;52.70;;;;;;10371895;28;20194;-25
2021/03/15 00:49:18;;;;;;;1.73;1.00;;;19.40;52.70;;;;;;10371725;28;20191;-25
2021/03/15 00:54:40;;;;;;;1.43;0.77;;;19.30;52.50;;;;;;10373455;28;20218;-25
2021/03/15 01:00:01;;;;;;;1.73;0.70;;;19.40;52.50;;;;;;10372273;28;20214;-25
2021/03/15 01:05:28;;;;;;;2.13;0.80;;;19.40;52.60;;;;;;10372931;28;20251;-25
2021/03/15 01:10:50;;;;;;;2.70;0.97;;;19.30;52.60;;;;;;10372109;28;20191;-25
2021/03/15 01:16:12;;;;;;;1.77;1.03;;;19.30;52.70;;;;;;10371725;28;20760;-25
2021/03/15 01:21:34;;;;;;;1.67;0.73;;;19.30;52.60;;;;;;10331542;28;20202;-25
2021/03/15 01:26:56;;;;;;;2.10;0.70;;;19.30;52.60;;;;;;10367672;28;20280;-26
2021/03/15 01:32:18;;;;;;;1.63;0.77;;;19.30;52.50;;;;;;10412011;28;20573;-25
2021/03/15 01:37:40;;;;;;;2.77;0.93;;;19.30;52.60;;;;;;10412020;28;20218;-25
2021/03/15 01:43:02;;;;;;;1.50;0.50;;;19.20;52.70;;;;;;10410890;28;20677;-25
2021/03/15 01:48:24;;;;;;;1.70;0.80;;;19.30;53.30;;;;;;10407918;28;20264;-25
2021/03/15 01:53:46;;;;;;;1.30;0.70;;;19.30;52.60;;;;;;10377041;28;20674;-25
2021/03/15 01:59:09;;;;;;;1.93;0.80;;;19.30;52.50;;;;;;10370312;28;20226;-25
2021/03/15 02:04:30;;;;;;;0.77;0.53;;;19.30;52.50;;;;;;10369999;28;20686;-25
2021/03/15 02:09:53;;;;;;;1.43;0.70;;;19.20;52.60;;;;;;10369164;28;20213;-25
2021/03/15 02:15:19;;;;;;;1.40;0.60;;;19.20;52.70;;;;;;10369300;28;20716;-25
2021/03/15 02:21:32;;;;;;;1.03;0.70;;;19.30;52.60;;;;;;10402653;28;20209;-25
2021/03/15 02:27:30;;;;;;;2.00;0.70;;;19.30;52.40;;;;;;10330477;23;20236;-23
2021/03/15 02:33:37;;;;;;;1.33;0.73;;;19.20;52.50;;;;;;10409877;28;20236;-23
2021/03/15 02:39:02;;;;;;;1.63;0.60;;;19.20;52.60;;;;;;10416735;28;20711;-23
2021/03/15 02:44:24;;;;;;;1.17;0.63;;;19.20;52.60;;;;;;10425054;28;20198;-23
2021/03/15 02:49:48;;;;;;;0.90;0.57;;;19.30;52.60;;;;;;10449942;28;20672;-22
2021/03/15 02:55:14;;;;;;;2.53;0.80;;;19.20;52.50;;;;;;10451095;28;20251;-23
2021/03/15 03:00:37;;;;;;;1.47;0.70;;;19.20;52.60;;;;;;10451808;28;20224;-23
2021/03/15 03:06:00;;;;;;;1.40;0.60;;;19.20;52.70;;;;;;10451123;28;20221;-23
2021/03/15 03:11:25;;;;;;;1.57;0.70;;;19.20;52.70;;;;;;10450342;28;20601;-23
2021/03/15 03:16:47;;;;;;;1.67;0.70;;;19.20;52.60;;;;;;10455807;28;20234;-22
2021/03/15 03:22:13;;;;;;;1.87;0.80;;;19.30;52.50;;;;;;10416978;28;20665;-23
2021/03/15 03:27:35;;;;;;;0.60;0.43;;;19.20;52.60;;;;;;10437097;28;20700;-23
2021/03/15 03:32:59;;;;;;;1.37;0.70;;;19.20;52.70;;;;;;10456822;28;20201;-23
2021/03/15 03:38:21;;;;;;;1.07;0.60;;;19.20;52.60;;;;;;10457746;28;20231;-23
2021/03/15 03:43:44;;;;;;;1.37;0.70;;;19.20;52.50;;;;;;10445125;28;20193;-23
2021/03/15 03:49:06;;;;;;;0.70;0.43;;;19.20;52.40;;;;;;10375154;28;20233;-22
2021/03/15 03:54:34;;;;;;;1.10;0.57;;;19.20;52.50;;;;;;10374558;28;20210;-23
2021/03/15 03:59:57;;;;;;;1.03;0.63;;;19.20;52.70;;;;;;10374109;28;20585;-23
2021/03/15 04:05:22;;;;;;;1.13;0.60;;;19.20;52.70;;;;;;10374355;28;20589;-23
2021/03/15 04:10:44;;;;;;;0.83;0.60;;;19.20;52.60;;;;;;10374494;28;20631;-22
2021/03/15 04:16:08;;;;;;;1.13;0.60;;;19.20;52.50;;;;;;10373871;28;20702;-22
2021/03/15 04:21:32;;;;;;;1.13;0.57;;;19.20;52.60;;;;;;10454857;28;20207;-22
2021/03/15 04:26:54;;;;;;;0.97;0.40;;;19.20;52.70;;;;;;10442691;28;20217;-22
2021/03/15 04:32:17;;;;;;;0.83;0.50;;;19.20;52.70;;;;;;10454350;28;20197;-22
2021/03/15 04:37:39;;;;;;;1.47;0.60;;;19.20;52.60;;;;;;10447025;28;20221;-22
2021/03/15 04:43:01;;;;;;;1.77;0.70;;;19.30;52.30;;;;;;10421658;28;20657;-22
2021/03/15 04:48:26;;;;;;;1.17;0.50;;;19.40;52.00;;;;;;10413812;28;20213;-22
2021/03/15 04:53:48;;;;;;;0.50;0.40;;;19.50;51.90;;;;;;10432738;28;20250;-22
2021/03/15 04:59:12;;;;;;;1.20;0.60;;;19.50;51.60;;;;;;10451683;28;20239;-24
2021/03/15 05:04:37;;;;;;;0.73;0.43;;;19.60;51.50;;;;;;10451891;28;20572;-23
2021/03/15 05:10:00;;;;;;;0.70;0.33;;;19.60;51.50;;;;;;10413425;28;20209;-25
2021/03/15 05:15:21;;;;;;;0.73;0.47;;;19.50;51.50;;;;;;10400099;28;20345;-24
2021/03/15 05:20:46;;;;;;;1.17;0.60;;;19.50;51.70;;;;;;10442476;28;20279;-24
2021/03/15 05:26:10;;;;;;;0.97;0.57;;;19.60;51.60;;;;;;10441421;28;20229;-24
2021/03/15 05:31:33;;;;;;;1.17;0.60;;;19.60;51.40;;;;;;10453285;28;20250;-24
2021/03/15 05:36:58;;;;;;;1.60;0.77;;;19.60;51.30;;;;;;10450660;28;20213;-23
2021/03/15 05:42:29;;;;;;;1.20;0.70;;;19.70;51.20;;;;;;10453007;28;20222;-24
2021/03/15 05:48:25;;;;;;;0.97;0.60;;;19.80;51.10;;;;;;10452933;28;20241;-24
2021/03/15 05:54:17;;;;;;;1.30;0.70;;;19.70;51.00;;;;;;10436067;28;20202;-24
2021/03/15 06:00:00;;;;;;;0.73;0.40;;;19.80;50.90;;;;;;10411308;28;20268;-24
2021/03/15 06:05:24;;;;;;;0.97;0.57;;;19.90;50.70;;;;;;10383217;28;20300;-24
2021/03/15 06:11:02;;;;;;;1.97;0.70;;;19.90;50.70;;;;;;10411358;28;20199;-24
2021/03/15 06:16:24;;;;;;;0.73;0.47;;;19.90;50.50;;;;;;10411046;28;20237;-24
2021/03/15 06:21:47;;;;;;;0.80;0.60;;;19.90;50.80;;;;;;10370726;28;20198;-24
2021/03/15 06:27:10;;;;;;;1.00;0.60;;;19.80;50.90;;;;;;10410536;28;20239;-24
2021/03/15 06:32:32;;;;;;;1.17;0.70;;;19.90;50.90;;;;;;10451997;28;20201;-24
2021/03/15 06:37:54;;;;;;;0.60;0.50;;;19.90;50.80;;;;;;10450954;28;20774;-24
2021/03/15 06:43:20;;;;;;;1.10;0.57;;;19.90;50.80;;;;;;10451390;28;20576;-24
2021/03/15 06:48:42;;;;;;;1.30;0.53;;;19.80;50.90;;;;;;10434169;28;20214;-24
2021/03/15 06:54:04;;;;;;;1.50;0.40;;;19.90;50.80;;;;;;10458301;28;20692;-24
2021/03/15 06:59:48;;;;;;;0.50;0.50;;;19.90;50.70;;;;;;10421860;28;20235;-24
2021/03/15 07:05:11;;;;;;;1.33;0.70;;;20.00;50.80;;;;;;10409908;28;20222;-24
2021/03/15 07:10:34;;;;;;;2.10;0.67;;;20.00;50.80;;;;;;10377944;28;20206;-23
2021/03/15 07:15:56;;;;;;;0.97;0.40;;;20.10;50.60;;;;;;10376534;28;20218;-24
2021/03/15 07:21:31;;;;;;;0.80;0.50;;;20.30;50.50;;;;;;10410836;28;20229;-24
2021/03/15 07:26:54;;;;;;;2.20;0.50;;;20.50;50.30;;;;;;10417044;28;20278;-23
2021/03/15 07:32:40;;;;;;;1.47;0.50;;;20.60;50.10;;;;;;10456712;28;20583;-24
2021/03/15 07:38:02;;;;;;;0.90;0.50;;;20.60;49.80;;;;;;10453094;28;20283;-23
2021/03/15 07:43:27;;;;;;;0.70;0.60;;;20.50;50.20;;;;;;10419051;28;20216;-23
2021/03/15 07:48:50;;;;;;;0.70;0.50;;;20.60;50.20;;;;;;10418090;28;20588;-24
2021/03/15 07:54:12;;;;;;;0.70;0.50;;;20.70;49.90;;;;;;10414984;28;21266;-23
2021/03/15 07:59:34;;;;;;;0.70;0.50;;;20.70;49.70;;;;;;10374579;28;20225;-23
2021/03/15 08:04:57;;;;;;;0.60;0.57;;;20.90;49.60;;;;;;10374925;28;20200;-23
2021/03/15 08:10:19;;;;;;;2.33;0.47;;;20.80;49.40;;;;;;10371338;28;20585;-24
2021/03/15 08:15:45;;;;;;;3.00;0.50;;;20.80;49.50;;;;;;10368300;28;20711;-24
2021/03/15 08:21:11;;;;;;;0.63;0.40;;;20.80;49.50;;;;;;10442451;28;20223;-23
2021/03/15 08:26:34;;;;;;;0.60;0.47;;;20.90;49.50;;;;;;10429274;28;20233;-24
2021/03/15 08:31:57;;;;;;;2.27;0.70;;;20.90;49.30;;;;;;10407762;28;20193;-24
2021/03/15 08:37:49;;;;;;;2.30;0.70;;;21.00;49.20;;;;;;10407971;28;20274;-23
2021/03/15 08:43:25;;;;;;;0.93;0.50;;;21.00;49.10;;;;;;10397521;28;20201;-23
2021/03/15 08:49:02;;;;;;;0.80;0.50;;;21.00;49.10;;;;;;10407386;28;20228;-23
2021/03/15 08:54:46;;;;;;;1.13;0.43;;;21.00;49.20;;;;;;10419026;28;20202;-24
2021/03/15 09:00:33;;;;;;;1.50;0.60;;;21.00;49.00;;;;;;10415264;28;20605;-23
2021/03/15 09:05:54;;;;;;;1.87;0.70;;;21.00;49.00;;;;;;10406935;28;20221;-23
2021/03/15 09:16:41;;;;;;;1.57;0.70;;;21.10;49.00;;;;;;10402241;23;20316;-29
2021/03/15 09:22:04;;;;;;;1.10;0.83;;;20.80;49.70;;;;;;10406856;28;20241;-28
2021/03/15 09:27:32;;;;;;;0.97;0.60;;;20.60;50.40;;;;;;10414946;28;20210;-29
2021/03/15 09:32:56;;;;;;;1.10;0.70;;;20.60;50.10;;;;;;10423508;28;20217;-28
2021/03/15 09:38:17;;;;;;;1.37;0.60;;;20.90;49.70;;;;;;10427174;28;20645;-29
2021/03/15 09:43:39;;;;;;;0.83;0.63;;;20.90;49.50;;;;;;10364589;28;20228;-30
2021/03/15 09:49:01;;;;;;;1.00;0.50;;;20.90;49.50;;;;;;10363588;28;20204;-30
2021/03/15 09:54:38;;;;;;;1.73;0.67;;;21.00;49.30;;;;;;10393961;28;20765;-28
2021/03/15 10:00:07;;;;;;;1.00;0.60;;;21.20;49.00;;;;;;10366488;28;20220;-29
2021/03/15 10:05:29;;;;;;;1.53;0.53;;;21.20;49.00;;;;;;10397277;28;20225;-29
2021/03/15 10:10:52;;;;;;;0.60;0.50;;;21.30;49.00;;;;;;10405285;28;20648;-28
2021/03/15 10:16:13;;;;;;;2.57;0.50;;;21.20;49.00;;;;;;10380530;28;20267;-31
2021/03/15 10:21:36;;;;;;;1.17;0.37;;;21.30;48.90;;;;;;10403691;28;20727;-30
2021/03/15 10:26:58;;;;;;;2.67;0.60;;;21.30;48.90;;;;;;10423764;28;20201;-32
2021/03/15 10:32:25;;;;;;;1.00;0.50;;;21.30;48.90;;;;;;10452861;28;20217;-30
2021/03/15 10:37:51;;;;;;;1.60;0.63;;;21.30;48.70;;;;;;10453234;28;20216;-29
2021/03/15 10:43:17;;;;;;;0.90;0.67;;;21.30;48.80;;;;;;10370765;28;20284;-29
2021/03/15 10:48:38;;;;;;;7.47;0.70;;;21.30;48.90;;;;;;10418942;28;20282;-27
2021/03/15 10:54:01;;;;;;;1.00;0.67;;;21.40;49.40;;;;;;10411688;28;20221;-29
2021/03/15 10:59:32;;;;;;;1.10;0.50;;;21.40;48.70;;;;;;10386077;28;20790;-31
2021/03/15 11:04:56;;;;;;;1.37;0.50;;;21.30;48.70;;;;;;10408871;28;20336;-33
2021/03/15 11:10:21;;;;;;;0.40;0.40;;;21.30;48.90;;;;;;10371207;28;20776;-28
2021/03/15 11:15:43;;;;;;;0.53;0.37;;;21.30;48.90;;;;;;10371966;28;20768;-32
2021/03/15 11:21:09;;;;;;;1.07;0.60;;;21.30;48.70;;;;;;10376439;28;20229;-29
2021/03/15 11:26:44;;;;;;;6.27;0.60;;;21.30;48.80;;;;;;10411783;28;20235;-32
2021/03/15 11:32:10;;;;;;;2.57;0.67;;;21.40;49.10;;;;;;10410452;28;20597;-29
2021/03/15 11:37:34;;;;;;;1.57;0.63;;;21.40;49.00;;;;;;10375167;28;20210;-31
2021/03/15 11:42:56;;;;;;;1.63;0.47;;;21.40;48.80;;;;;;10374482;28;20220;-29
2021/03/15 11:48:18;;;;;;;0.93;0.60;;;21.40;48.50;;;;;;10374284;28;20194;-30
2021/03/15 11:53:40;;;;;;;3.83;1.10;;;21.40;48.50;;;;;;10374325;28;20689;-28
2021/03/15 11:59:03;;;;;;;1.90;1.00;;;21.20;48.80;;;;;;10393527;28;20224;-29
2021/03/15 12:04:28;;;;;;;2.53;0.60;;;20.90;49.50;;;;;;10410285;28;20221;-30
2021/03/15 12:09:50;;;;;;;1.53;0.80;;;20.90;49.50;;;;;;10408401;28;20235;-29
2021/03/15 12:15:14;;;;;;;3.23;1.20;;;21.10;49.30;;;;;;10392809;28;20735;-30
2021/03/15 12:20:37;;;;;;;3.70;1.40;;;21.30;49.00;;;;;;10421261;28;20218;-29
2021/03/15 12:25:59;;;;;;;2.73;1.20;;;21.30;48.80;;;;;;10414415;28;20229;-29
2021/03/15 12:31:21;;;;;;;3.13;1.23;;;21.30;48.90;;;;;;10413678;28;20688;-32
2021/03/15 12:36:43;;;;;;;6.93;1.60;;;21.20;49.10;;;;;;10418340;28;20197;-29
2021/03/15 12:42:05;;;;;;;6.07;1.70;;;21.20;48.90;;;;;;10438642;28;20213;-29
2021/03/15 12:47:28;;;;;;;4.03;1.40;;;21.30;48.60;;;;;;10415936;28;20202;-31
2021/03/15 12:52:49;;;;;;;6.73;1.90;;;21.40;48.50;;;;;;10372572;28;20218;-31
2021/03/15 12:58:11;;;;;;;5.37;1.80;;;21.50;48.40;;;;;;10403571;28;20221;-28
2021/03/15 13:03:33;;;;;;;6.20;1.70;;;21.50;48.40;;;;;;10413716;28;20541;-30
2021/03/15 13:08:55;;;;;;;6.10;1.70;;;21.40;48.40;;;;;;10412296;28;20193;-30
2021/03/15 13:14:18;;;;;;;5.33;1.57;;;21.50;48.40;;;;;;10411369;28;20226;-30
2021/03/15 13:19:40;;;;;;;5.80;1.90;;;21.50;48.20;;;;;;10437624;28;20244;-29
2021/03/15 13:25:02;;;;;;;8.50;2.40;;;21.50;47.90;;;;;;10433367;28;20585;-29
2021/03/15 13:30:25;;;;;;;4.30;1.93;;;21.50;47.80;;;;;;10370660;28;20198;-30
2021/03/15 13:35:47;;;;;;;4.60;1.77;;;21.50;48.10;;;;;;10365052;28;20214;-30
2021/03/15 13:41:09;;;;;;;4.63;1.70;;;21.30;48.30;;;;;;10392169;28;20230;-30
2021/03/15 13:46:31;;;;;;;4.87;1.83;;;21.10;48.70;;;;;;10400249;28;20727;-29
2021/03/15 13:51:53;;;;;;;4.03;1.90;;;20.90;49.10;;;;;;10386005;28;20248;-31
2021/03/15 13:57:15;;;;;;;5.67;2.43;;;20.80;49.50;;;;;;10400477;28;20194;-29
2021/03/15 14:02:36;;;;;;;8.30;1.87;;;20.80;49.70;;;;;;10420945;28;20249;-29
2021/03/15 14:07:59;;;;;;;5.97;2.00;;;20.80;49.80;;;;;;10404662;28;20208;-31
2021/03/15 14:13:20;;;;;;;6.87;2.30;;;20.80;49.80;;;;;;10407043;28;20435;-29
2021/03/15 14:18:42;;;;;;;8.20;2.00;;;20.90;49.80;;;;;;10425211;28;20243;-31
2021/03/15 14:24:05;;;;;;;4.93;2.17;;;20.80;50.00;;;;;;10407610;28;20245;-29
2021/03/15 14:29:27;;;;;;;4.90;2.20;;;20.80;50.10;;;;;;10409886;28;20203;-28
2021/03/15 14:34:49;;;;;;;4.17;1.80;;;20.70;50.10;;;;;;10418595;28;20269;-31
2021/03/15 14:40:12;;;;;;;6.27;2.00;;;20.70;50.20;;;;;;10380611;28;20279;-31
2021/03/15 14:45:34;;;;;;;6.43;2.20;;;20.90;49.80;;;;;;10409858;28;20252;-30
2021/03/15 14:50:57;;;;;;;4.57;1.83;;;21.10;49.40;;;;;;10385123;28;20234;-28
2021/03/15 14:56:19;;;;;;;5.57;2.20;;;21.20;49.30;;;;;;10385305;28;20305;-29
2021/03/15 15:01:41;;;;;;;8.20;2.37;;;21.20;49.20;;;;;;10410136;28;20221;-30
2021/03/15 15:07:02;;;;;;;5.57;2.20;;;21.30;49.00;;;;;;10424837;28;20687;-29
2021/03/15 15:12:25;;;;;;;5.83;1.93;;;21.40;49.00;;;;;;10418520;28;20223;-28
2021/03/15 15:17:47;;;;;;;5.63;2.23;;;21.30;48.90;;;;;;10447478;28;20632;-32
2021/03/15 15:23:09;;;;;;;4.77;2.10;;;21.30;49.00;;;;;;10417937;23;20230;-23
2021/03/15 15:28:31;;;;;;;2.83;1.47;;;21.30;48.90;;;;;;10387321;28;20237;-23
2021/03/15 15:33:53;;;;;;;8.97;1.63;;;21.40;48.90;;;;;;10376409;28;20218;-23
2021/03/15 15:39:14;;;;;;;4.07;1.70;;;21.40;48.60;;;;;;10376812;28;20225;-23
2021/03/15 15:44:37;;;;;;;4.37;1.80;;;21.50;48.50;;;;;;10382119;28;20202;-23
2021/03/15 15:49:58;;;;;;;3.63;1.70;;;21.50;48.30;;;;;;10373495;28;20218;-23
2021/03/15 15:55:20;;;;;;;4.97;1.60;;;21.50;48.20;;;;;;10382269;28;20685;-23
2021/03/15 16:00:42;;;;;;;3.30;1.57;;;21.50;48.20;;;;;;10396003;28;20214;-23
2021/03/15 16:06:05;;;;;;;6.33;1.80;;;21.50;48.20;;;;;;10382649;28;20195;-23
2021/03/15 16:11:29;;;;;;;4.67;1.83;;;21.50;48.20;;;;;;10384104;28;20210;-21
2021/03/15 16:16:51;;;;;;;3.53;1.40;;;21.50;48.20;;;;;;10372993;28;20689;-24
2021/03/15 16:22:14;;;;;;;3.10;1.50;;;21.50;48.30;;;;;;10381144;28;20706;-23
2021/03/15 16:27:37;;;;;;;3.10;1.57;;;21.60;48.30;;;;;;10384354;28;20230;-23
2021/03/15 16:33:00;;;;;;;5.20;1.77;;;21.50;48.40;;;;;;10412742;28;20214;-24
2021/03/15 16:38:22;;;;;;;3.83;1.80;;;21.50;48.40;;;;;;10414134;28;20680;-23
2021/03/15 16:43:44;;;;;;;3.83;1.50;;;21.60;48.20;;;;;;10413153;28;20221;-24
2021/03/15 16:49:06;;;;;;;3.17;1.30;;;21.50;48.30;;;;;;10408845;28;20186;-23
2021/03/15 16:54:28;;;;;;;3.03;1.30;;;21.50;48.30;;;;;;10403044;28;20204;-23
2021/03/15 16:59:50;;;;;;;2.47;1.30;;;21.60;48.10;;;;;;10399074;28;20218;-23
2021/03/15 17:05:13;;;;;;;2.40;1.03;;;21.60;48.10;;;;;;10389943;28;20198;-23
2021/03/15 17:10:35;;;;;;;3.47;1.23;;;21.50;48.10;;;;;;10403013;28;20213;-23
2021/03/15 17:15:57;;;;;;;2.23;1.23;;;21.40;48.40;;;;;;10396347;28;20203;-22
2021/03/15 17:21:19;;;;;;;3.57;1.33;;;21.30;48.40;;;;;;10407759;28;20232;-22
2021/03/15 17:26:41;;;;;;;2.43;1.00;;;21.30;48.60;;;;;;10409555;28;20194;-23
2021/03/15 17:32:03;;;;;;;2.37;1.00;;;21.60;48.50;;;;;;10408422;28;20221;-23
2021/03/15 17:37:25;;;;;;;2.57;1.40;;;22.10;47.80;;;;;;10375474;28;20198;-23
2021/03/15 17:42:47;;;;;;;2.73;1.37;;;22.60;47.10;;;;;;10384617;28;20290;-23
2021/03/15 17:48:09;;;;;;;1.93;1.00;;;22.70;46.20;;;;;;10367909;28;20198;-24
2021/03/15 17:53:31;;;;;;;2.67;1.27;;;22.70;45.90;;;;;;10369741;28;20222;-24
2021/03/15 17:58:53;;;;;;;1.57;0.97;;;22.70;45.90;;;;;;10396819;28;20229;-24
2021/03/15 18:04:14;;;;;;;1.97;1.10;;;22.70;45.80;;;;;;10368057;28;20259;-23
2021/03/15 18:09:37;;;;;;;2.73;0.90;;;22.70;45.80;;;;;;10368222;28;20218;-23
2021/03/15 18:14:59;;;;;;;2.53;1.03;;;22.70;45.90;;;;;;10399803;28;20202;-24
2021/03/15 18:20:22;;;;;;;1.73;1.00;;;22.80;45.90;;;;;;10384113;28;20238;-24
2021/03/15 18:25:44;;;;;;;2.50;0.70;;;22.80;45.80;;;;;;10371350;28;20590;-24
2021/03/15 18:31:06;;;;;;;3.13;1.07;;;22.80;45.80;;;;;;10402459;28;20255;-24
2021/03/15 18:36:28;;;;;;;1.70;0.90;;;22.80;45.90;;;;;;10408415;28;20205;-23
2021/03/15 18:41:50;;;;;;;1.87;1.10;;;22.80;45.80;;;;;;10399711;28;20221;-23
2021/03/15 18:47:12;;;;;;;2.47;1.00;;;22.90;45.90;;;;;;10411988;28;20527;-23
2021/03/15 18:52:34;;;;;;;2.43;1.10;;;22.40;46.50;;;;;;10374680;28;20214;-23
2021/03/15 18:57:56;;;;;;;1.47;0.90;;;22.00;47.50;;;;;;10398083;28;20236;-23
2021/03/15 19:03:18;;;;;;;2.73;0.90;;;21.70;48.00;;;;;;10401278;28;20210;-23
2021/03/15 19:08:39;;;;;;;3.27;1.00;;;21.50;48.50;;;;;;10406030;28;20572;-24
2021/03/15 19:14:02;;;;;;;1.13;0.70;;;21.40;48.90;;;;;;10406206;28;20571;-24
2021/03/15 19:19:24;;;;;;;2.70;0.90;;;21.30;49.00;;;;;;10385844;28;20217;-23
2021/03/15 19:24:46;;;;;;;2.40;1.10;;;21.30;49.10;;;;;;10377388;28;20609;-24
2021/03/15 19:30:10;;;;;;;1.83;0.90;;;21.20;49.20;;;;;;10373774;28;20261;-24
2021/03/15 19:35:31;;;;;;;1.80;1.03;;;21.20;49.40;;;;;;10398555;28;20194;-23
2021/03/15 19:40:53;;;;;;;2.10;1.00;;;21.20;49.40;;;;;;10392315;28;20221;-23
2021/03/15 19:46:16;;;;;;;1.30;0.60;;;21.20;49.40;;;;;;10386764;28;20208;-23
2021/03/15 19:51:38;;;;;;;1.87;1.00;;;21.20;49.40;;;;;;10394843;28;20269;-24
2021/03/15 19:57:00;;;;;;;3.80;1.20;;;21.20;49.20;;;;;;10390816;28;20200;-23
2021/03/15 20:02:22;;;;;;;2.20;1.00;;;21.40;49.00;;;;;;10407250;28;20218;-23
2021/03/15 20:07:44;;;;;;;1.60;0.73;;;21.60;49.00;;;;;;10377627;28;20666;-22
2021/03/15 20:13:06;;;;;;;1.80;0.90;;;21.70;48.10;;;;;;10406764;28;20221;-24
2021/03/15 20:18:28;;;;;;;1.73;0.97;;;21.80;48.00;;;;;;10398446;28;20214;-23
2021/03/15 20:23:50;;;;;;;1.80;1.10;;;21.90;47.80;;;;;;10399188;28;20226;-23
2021/03/15 20:29:12;;;;;;;1.97;0.97;;;22.00;47.60;;;;;;10372879;28;20665;-23
2021/03/15 20:34:34;;;;;;;2.00;0.83;;;22.10;47.40;;;;;;10370933;28;20273;-23
2021/03/15 20:39:56;;;;;;;2.67;1.07;;;22.20;47.20;;;;;;10378301;28;20264;-24
2021/03/15 20:45:18;;;;;;;1.43;0.77;;;22.20;47.30;;;;;;10401889;28;20570;-23
2021/03/15 20:50:41;;;;;;;1.23;0.70;;;22.20;47.30;;;;;;10382240;28;20210;-23
2021/03/15 20:56:04;;;;;;;2.57;0.70;;;22.30;47.20;;;;;;10411770;28;20216;-24
2021/03/15 21:01:25;;;;;;;1.23;0.80;;;22.30;47.20;;;;;;10411852;28;20226;-23
2021/03/15 21:06:48;;;;;;;1.10;0.77;;;22.30;47.10;;;;;;10409510;28;20197;-23
2021/03/15 21:12:10;;;;;;;1.73;0.90;;;22.30;46.90;;;;;;10370744;28;20268;-24
2021/03/15 21:17:32;;;;;;;1.77;0.90;;;22.40;46.80;;;;;;10397368;28;20190;-23
2021/03/15 21:22:54;;;;;;;1.67;0.90;;;22.20;47.20;;;;;;10402955;23;20593;-25
2021/03/15 21:28:17;;;;;;;2.33;0.90;;;22.20;47.20;;;;;;10383511;28;20203;-26
2021/03/15 21:33:38;;;;;;;2.13;1.00;;;22.30;47.10;;;;;;10398389;28;20293;-26
2021/03/15 21:39:01;;;;;;;1.60;1.00;;;22.40;46.90;;;;;;10410512;28;20255;-25
2021/03/15 21:44:22;;;;;;;2.93;1.03;;;22.30;47.00;;;;;;10386144;28;20226;-26
2021/03/15 21:49:44;;;;;;;3.10;0.77;;;22.20;47.20;;;;;;10383243;28;20194;-25
2021/03/15 21:55:09;;;;;;;1.93;0.90;;;22.20;47.40;;;;;;10394077;28;20828;-26
2021/03/15 22:00:31;;;;;;;2.40;0.80;;;22.00;47.60;;;;;;10370098;28;20216;-26
2021/03/15 22:05:53;;;;;;;2.20;0.83;;;21.90;47.80;;;;;;10392171;28;20621;-26
2021/03/15 22:11:15;;;;;;;1.80;1.00;;;21.90;47.90;;;;;;10410454;28;20201;-25
2021/03/15 22:16:37;;;;;;;2.40;0.97;;;22.00;47.80;;;;;;10405028;28;20225;-25
2021/03/15 22:21:59;;;;;;;2.43;1.00;;;21.90;47.90;;;;;;10401493;28;20222;-26
2021/03/15 22:27:21;;;;;;;1.23;0.57;;;21.90;48.00;;;;;;10381720;28;20699;-26
2021/03/15 22:32:43;;;;;;;2.20;1.10;;;21.90;48.00;;;;;;10372199;28;20210;-25
2021/03/15 22:38:05;;;;;;;1.27;0.70;;;21.90;47.90;;;;;;10369506;28;20201;-25
2021/03/15 22:43:27;;;;;;;1.23;0.70;;;21.90;47.80;;;;;;10397768;28;20225;-26
2021/03/15 22:48:49;;;;;;;1.63;0.77;;;21.80;47.80;;;;;;10387868;28;20613;-25
2021/03/15 22:54:11;;;;;;;2.30;0.97;;;21.90;47.90;;;;;;10369349;28;20230;-25
2021/03/15 22:59:33;;;;;;;3.07;0.90;;;21.60;48.00;;;;;;10367650;28;20214;-27
2021/03/15 23:04:55;;;;;;;1.80;0.80;;;21.30;48.70;;;;;;10396270;28;20221;-26
2021/03/15 23:10:20;;;;;;;1.33;0.87;;;21.00;49.20;;;;;;10401161;28;20569;-25
2021/03/15 23:15:42;;;;;;;1.67;0.87;;;20.90;49.60;;;;;;10409356;28;20217;-25
2021/03/15 23:21:04;;;;;;;2.17;0.90;;;20.80;49.90;;;;;;10374254;28;20249;-28
2021/03/15 23:26:26;;;;;;;3.33;1.17;;;20.70;50.20;;;;;;10368585;28;20222;-27
2021/03/15 23:31:48;;;;;;;2.10;0.87;;;20.60;50.30;;;;;;10372087;28;20198;-25
2021/03/15 23:37:11;;;;;;;2.20;0.70;;;20.50;50.40;;;;;;10375735;28;20252;-25
2021/03/15 23:42:32;;;;;;;2.50;0.80;;;20.50;50.60;;;;;;10394774;28;20260;-25
2021/03/15 23:47:55;;;;;;;1.40;0.80;;;20.40;50.80;;;;;;10416621;28;20260;-25
2021/03/15 23:53:16;;;;;;;1.37;0.87;;;20.30;50.80;;;;;;10416777;28;20253;-27
2021/03/15 23:58:38;;;;;;;3.40;1.27;;;20.40;50.90;;;;;;10417081;28;20220;-25
